sensor_id;sensor_type;location;lat;lon;timestamp;temperature;humidity
35523;DHT22;61478;50.820;4.330;2023-03-20T00:27:20;7.30;99.90
35523;DHT22;61478;50.820;4.330;2023-03-20T00:29:46;7.20;99.90
35523;DHT22;61478;50.820;4.330;2023-03-20T00:32:13;7.00;99.90
35523;DHT22;61478;50.820;4.330;2023-03-20T00:34:40;7.00;99.90
35523;DHT22;61478;50.820;4.330;2023-03-20T00:37:07;7.20;99.90
35523;DHT22;61478;50.820;4.330;2023-03-20T00:39:36;7.20;99.90
35523;DHT22;61478;50.820;4.330;2023-03-20T00:42:04;7.20;99.90
35523;DHT22;61478;50.820;4.330;2023-03-20T00:44:37;7.20;99.90
35523;DHT22;61478;50.820;4.330;2023-03-20T00:47:21;7.20;99.90
35523;DHT22;61478;50.820;4.330;2023-03-20T00:49:49;7.20;99.90
35523;DHT22;61478;50.820;4.330;2023-03-20T00:52:17;7.30;99.90
35523;DHT22;61478;50.820;4.330;2023-03-20T00:54:43;7.60;99.90
35523;DHT22;61478;50.820;4.330;2023-03-20T00:57:13;7.70;99.90
35523;DHT22;61478;50.820;4.330;2023-03-20T00:59:55;7.70;99.90
35523;DHT22;61478;50.820;4.330;2023-03-20T01:05:45;7.60;99.90
35523;DHT22;61478;50.820;4.330;2023-03-20T01:08:20;7.70;99.90
35523;DHT22;61478;50.820;4.330;2023-03-20T01:10:49;7.80;99.90
35523;DHT22;61478;50.820;4.330;2023-03-20T01:13:24;7.80;99.90
35523;DHT22;61478;50.820;4.330;2023-03-20T01:15:52;7.80;99.90
35523;DHT22;61478;50.820;4.330;2023-03-20T01:21:31;7.70;99.90
35523;DHT22;61478;50.820;4.330;2023-03-20T01:23:56;7.60;99.90
35523;DHT22;61478;50.820;4.330;2023-03-20T01:26:35;7.70;99.90
35523;DHT22;61478;50.820;4.330;2023-03-20T01:29:22;7.70;99.90
35523;DHT22;61478;50.820;4.330;2023-03-20T01:31:49;7.70;99.90
35523;DHT22;61478;50.820;4.330;2023-03-20T01:34:16;7.70;99.90
35523;DHT22;61478;50.820;4.330;2023-03-20T01:37:01;7.70;99.90
35523;DHT22;61478;50.820;4.330;2023-03-20T01:39:34;7.70;99.90
35523;DHT22;61478;50.820;4.330;2023-03-20T01:42:02;7.70;99.90
35523;DHT22;61478;50.820;4.330;2023-03-20T01:44:35;7.70;99.90
35523;DHT22;61478;50.820;4.330;2023-03-20T01:47:14;7.70;99.90
35523;DHT22;61478;50.820;4.330;2023-03-20T01:53:06;7.70;99.90
35523;DHT22;61478;50.820;4.330;2023-03-20T01:55:33;7.70;99.90
35523;DHT22;61478;50.820;4.330;2023-03-20T01:58:03;7.60;99.90
35523;DHT22;61478;50.820;4.330;2023-03-20T02:00:34;7.60;99.90
35523;DHT22;61478;50.820;4.330;2023-03-20T02:03:02;7.60;99.90
35523;DHT22;61478;50.820;4.330;2023-03-20T02:05:29;7.60;99.90
35523;DHT22;61478;50.820;4.330;2023-03-20T02:08:08;7.60;99.90
35523;DHT22;61478;50.820;4.330;2023-03-20T02:10:39;7.70;99.90
35523;DHT22;61478;50.820;4.330;2023-03-20T02:13:06;7.60;99.90
35523;DHT22;61478;50.820;4.330;2023-03-20T02:15:50;7.70;99.90
35523;DHT22;61478;50.820;4.330;2023-03-20T02:18:17;7.60;99.90
35523;DHT22;61478;50.820;4.330;2023-03-20T02:30:09;7.50;99.90
35523;DHT22;61478;50.820;4.330;2023-03-20T02:38:28;7.50;99.90
35523;DHT22;61478;50.820;4.330;2023-03-20T02:52:40;7.50;99.90
35523;DHT22;61478;50.820;4.330;2023-03-20T02:58:13;7.50;99.90
35523;DHT22;61478;50.820;4.330;2023-03-20T03:00:48;7.50;99.90
35523;DHT22;61478;50.820;4.330;2023-03-20T03:03:27;7.40;99.90
35523;DHT22;61478;50.820;4.330;2023-03-20T03:06:14;7.40;99.90
35523;DHT22;61478;50.820;4.330;2023-03-20T03:08:46;7.40;99.90
35523;DHT22;61478;50.820;4.330;2023-03-20T03:11:14;7.40;99.90
35523;DHT22;61478;50.820;4.330;2023-03-20T03:13:47;7.30;99.90
35523;DHT22;61478;50.820;4.330;2023-03-20T03:16:20;7.20;99.90
35523;DHT22;61478;50.820;4.330;2023-03-20T03:18:49;7.20;99.90
35523;DHT22;61478;50.820;4.330;2023-03-20T03:21:17;7.30;99.90
35523;DHT22;61478;50.820;4.330;2023-03-20T03:23:47;7.20;99.90
35523;DHT22;61478;50.820;4.330;2023-03-20T03:26:21;7.20;99.90
35523;DHT22;61478;50.820;4.330;2023-03-20T03:28:56;7.20;99.90
35523;DHT22;61478;50.820;4.330;2023-03-20T03:31:23;7.30;99.90
35523;DHT22;61478;50.820;4.330;2023-03-20T03:33:54;7.30;99.90
35523;DHT22;61478;50.820;4.330;2023-03-20T03:38:57;7.30;99.90
35523;DHT22;61478;50.820;4.330;2023-03-20T03:41:31;7.30;99.90
35523;DHT22;61478;50.820;4.330;2023-03-20T03:46:47;7.20;99.90
35523;DHT22;61478;50.820;4.330;2023-03-20T03:49:24;7.20;99.90
35523;DHT22;61478;50.820;4.330;2023-03-20T03:51:55;7.30;99.90
35523;DHT22;61478;50.820;4.330;2023-03-20T03:54:28;7.20;99.90
35523;DHT22;61478;50.820;4.330;2023-03-20T03:56:56;7.20;99.90
35523;DHT22;61478;50.820;4.330;2023-03-20T03:59:34;7.20;99.90
35523;DHT22;61478;50.820;4.330;2023-03-20T04:02:01;7.10;99.90
35523;DHT22;61478;50.820;4.330;2023-03-20T04:04:31;7.20;99.90
35523;DHT22;61478;50.820;4.330;2023-03-20T04:06:58;7.10;99.90
35523;DHT22;61478;50.820;4.330;2023-03-20T04:09:24;7.10;99.90
35523;DHT22;61478;50.820;4.330;2023-03-20T04:11:52;7.10;99.90
35523;DHT22;61478;50.820;4.330;2023-03-20T04:14:18;7.10;99.90
35523;DHT22;61478;50.820;4.330;2023-03-20T04:16:45;7.10;99.90
35523;DHT22;61478;50.820;4.330;2023-03-20T04:19:10;7.10;99.90
35523;DHT22;61478;50.820;4.330;2023-03-20T04:21:36;7.00;99.90
35523;DHT22;61478;50.820;4.330;2023-03-20T04:24:03;7.10;99.90
35523;DHT22;61478;50.820;4.330;2023-03-20T04:26:29;7.10;99.90
35523;DHT22;61478;50.820;4.330;2023-03-20T04:28:55;7.10;99.90
35523;DHT22;61478;50.820;4.330;2023-03-20T04:31:21;7.10;99.90
35523;DHT22;61478;50.820;4.330;2023-03-20T04:33:50;7.10;99.90
35523;DHT22;61478;50.820;4.330;2023-03-20T04:36:18;7.10;99.90
35523;DHT22;61478;50.820;4.330;2023-03-20T04:38:44;7.00;99.90
35523;DHT22;61478;50.820;4.330;2023-03-20T04:41:10;7.00;99.90
35523;DHT22;61478;50.820;4.330;2023-03-20T04:43:36;7.00;99.90
35523;DHT22;61478;50.820;4.330;2023-03-20T04:46:02;7.00;99.90
35523;DHT22;61478;50.820;4.330;2023-03-20T04:48:28;7.00;99.90
35523;DHT22;61478;50.820;4.330;2023-03-20T04:50:54;7.00;99.90
35523;DHT22;61478;50.820;4.330;2023-03-20T04:53:21;7.10;99.90
35523;DHT22;61478;50.820;4.330;2023-03-20T04:55:47;7.10;99.90
35523;DHT22;61478;50.820;4.330;2023-03-20T04:58:13;7.00;99.90
35523;DHT22;61478;50.820;4.330;2023-03-20T05:00:39;7.00;99.90
35523;DHT22;61478;50.820;4.330;2023-03-20T05:03:05;7.00;99.90
35523;DHT22;61478;50.820;4.330;2023-03-20T05:05:31;7.00;99.90
35523;DHT22;61478;50.820;4.330;2023-03-20T05:07:58;7.10;99.90
35523;DHT22;61478;50.820;4.330;2023-03-20T05:10:24;7.10;99.90
35523;DHT22;61478;50.820;4.330;2023-03-20T05:12:50;7.10;99.90
35523;DHT22;61478;50.820;4.330;2023-03-20T05:15:17;7.10;99.90
35523;DHT22;61478;50.820;4.330;2023-03-20T05:17:43;7.00;99.90
35523;DHT22;61478;50.820;4.330;2023-03-20T05:20:09;7.00;99.90
35523;DHT22;61478;50.820;4.330;2023-03-20T05:22:35;7.10;99.90
35523;DHT22;61478;50.820;4.330;2023-03-20T05:25:01;7.10;99.90
35523;DHT22;61478;50.820;4.330;2023-03-20T05:27:28;7.10;99.90
35523;DHT22;61478;50.820;4.330;2023-03-20T05:29:54;7.20;99.90
35523;DHT22;61478;50.820;4.330;2023-03-20T05:32:20;7.10;99.90
35523;DHT22;61478;50.820;4.330;2023-03-20T05:34:46;7.10;99.90
35523;DHT22;61478;50.820;4.330;2023-03-20T05:37:12;7.10;99.90
35523;DHT22;61478;50.820;4.330;2023-03-20T05:39:38;7.20;99.90
35523;DHT22;61478;50.820;4.330;2023-03-20T05:42:04;7.10;99.90
35523;DHT22;61478;50.820;4.330;2023-03-20T05:44:30;7.10;99.90
35523;DHT22;61478;50.820;4.330;2023-03-20T05:46:57;7.10;99.90
35523;DHT22;61478;50.820;4.330;2023-03-20T05:49:23;7.10;99.90
35523;DHT22;61478;50.820;4.330;2023-03-20T05:51:49;7.10;99.90
35523;DHT22;61478;50.820;4.330;2023-03-20T05:54:15;7.00;99.90
35523;DHT22;61478;50.820;4.330;2023-03-20T05:56:44;7.00;99.90
35523;DHT22;61478;50.820;4.330;2023-03-20T05:59:10;7.10;99.90
35523;DHT22;61478;50.820;4.330;2023-03-20T06:01:39;7.10;99.90
35523;DHT22;61478;50.820;4.330;2023-03-20T06:04:05;7.00;99.90
35523;DHT22;61478;50.820;4.330;2023-03-20T06:06:31;7.00;99.90
35523;DHT22;61478;50.820;4.330;2023-03-20T06:08:59;7.00;99.90
35523;DHT22;61478;50.820;4.330;2023-03-20T06:11:27;7.00;99.90
35523;DHT22;61478;50.820;4.330;2023-03-20T06:13:53;7.00;99.90
35523;DHT22;61478;50.820;4.330;2023-03-20T06:16:20;7.00;99.90
35523;DHT22;61478;50.820;4.330;2023-03-20T06:18:46;7.00;99.90
35523;DHT22;61478;50.820;4.330;2023-03-20T06:21:13;7.00;99.90
35523;DHT22;61478;50.820;4.330;2023-03-20T06:23:40;7.10;99.90
35523;DHT22;61478;50.820;4.330;2023-03-20T06:26:06;7.10;99.90
35523;DHT22;61478;50.820;4.330;2023-03-20T06:28:32;7.10;99.90
35523;DHT22;61478;50.820;4.330;2023-03-20T06:30:59;7.00;99.90
35523;DHT22;61478;50.820;4.330;2023-03-20T06:33:25;7.00;99.90
35523;DHT22;61478;50.820;4.330;2023-03-20T06:35:51;7.00;99.90
35523;DHT22;61478;50.820;4.330;2023-03-20T06:38:17;7.00;99.90
35523;DHT22;61478;50.820;4.330;2023-03-20T06:40:47;7.00;99.90
35523;DHT22;61478;50.820;4.330;2023-03-20T06:43:15;7.00;99.90
35523;DHT22;61478;50.820;4.330;2023-03-20T06:45:42;7.10;99.90
35523;DHT22;61478;50.820;4.330;2023-03-20T06:48:08;7.10;99.90
35523;DHT22;61478;50.820;4.330;2023-03-20T06:50:36;7.00;99.90
35523;DHT22;61478;50.820;4.330;2023-03-20T06:53:02;7.00;99.90
35523;DHT22;61478;50.820;4.330;2023-03-20T06:55:31;7.00;99.90
35523;DHT22;61478;50.820;4.330;2023-03-20T06:57:57;7.00;99.90
35523;DHT22;61478;50.820;4.330;2023-03-20T07:00:23;7.10;99.90
35523;DHT22;61478;50.820;4.330;2023-03-20T07:02:49;7.10;99.90
35523;DHT22;61478;50.820;4.330;2023-03-20T07:05:16;7.10;99.90
35523;DHT22;61478;50.820;4.330;2023-03-20T07:07:42;7.10;99.90
35523;DHT22;61478;50.820;4.330;2023-03-20T07:10:09;7.10;99.90
35523;DHT22;61478;50.820;4.330;2023-03-20T07:12:37;7.00;99.90
35523;DHT22;61478;50.820;4.330;2023-03-20T07:15:03;7.10;99.90
35523;DHT22;61478;50.820;4.330;2023-03-20T07:17:29;7.10;99.90
35523;DHT22;61478;50.820;4.330;2023-03-20T07:19:55;7.10;99.90
35523;DHT22;61478;50.820;4.330;2023-03-20T07:22:23;7.20;99.90
35523;DHT22;61478;50.820;4.330;2023-03-20T07:24:50;7.20;99.90
35523;DHT22;61478;50.820;4.330;2023-03-20T07:27:16;7.30;99.90
35523;DHT22;61478;50.820;4.330;2023-03-20T07:29:43;7.30;99.90
35523;DHT22;61478;50.820;4.330;2023-03-20T07:32:10;7.40;99.90
35523;DHT22;61478;50.820;4.330;2023-03-20T07:34:36;7.40;99.90
35523;DHT22;61478;50.820;4.330;2023-03-20T07:37:03;7.30;99.90
35523;DHT22;61478;50.820;4.330;2023-03-20T07:39:29;7.40;99.90
35523;DHT22;61478;50.820;4.330;2023-03-20T07:41:55;7.50;99.90
35523;DHT22;61478;50.820;4.330;2023-03-20T07:44:21;7.50;99.90
35523;DHT22;61478;50.820;4.330;2023-03-20T07:46:47;7.70;99.90
35523;DHT22;61478;50.820;4.330;2023-03-20T07:49:13;7.70;99.90
35523;DHT22;61478;50.820;4.330;2023-03-20T07:51:39;7.70;99.90
35523;DHT22;61478;50.820;4.330;2023-03-20T07:54:05;7.70;99.90
35523;DHT22;61478;50.820;4.330;2023-03-20T07:56:31;7.70;99.90
35523;DHT22;61478;50.820;4.330;2023-03-20T07:58:57;7.70;99.90
35523;DHT22;61478;50.820;4.330;2023-03-20T08:01:23;7.70;99.90
35523;DHT22;61478;50.820;4.330;2023-03-20T08:03:49;7.70;99.90
35523;DHT22;61478;50.820;4.330;2023-03-20T08:06:15;7.70;99.90
35523;DHT22;61478;50.820;4.330;2023-03-20T08:08:41;7.70;99.90
35523;DHT22;61478;50.820;4.330;2023-03-20T08:11:07;7.70;99.90
35523;DHT22;61478;50.820;4.330;2023-03-20T08:13:33;7.80;99.90
35523;DHT22;61478;50.820;4.330;2023-03-20T08:15:58;7.80;99.90
35523;DHT22;61478;50.820;4.330;2023-03-20T08:18:24;7.80;99.90
35523;DHT22;61478;50.820;4.330;2023-03-20T08:20:50;7.80;99.90
35523;DHT22;61478;50.820;4.330;2023-03-20T08:23:16;7.80;99.90
35523;DHT22;61478;50.820;4.330;2023-03-20T08:25:49;7.80;99.90
35523;DHT22;61478;50.820;4.330;2023-03-20T08:28:15;7.90;99.90
35523;DHT22;61478;50.820;4.330;2023-03-20T08:30:41;7.90;99.90
35523;DHT22;61478;50.820;4.330;2023-03-20T08:33:08;7.90;99.90
35523;DHT22;61478;50.820;4.330;2023-03-20T08:35:34;7.90;99.90
35523;DHT22;61478;50.820;4.330;2023-03-20T08:38:00;8.00;99.90
35523;DHT22;61478;50.820;4.330;2023-03-20T08:40:26;8.00;99.90
35523;DHT22;61478;50.820;4.330;2023-03-20T08:42:52;8.10;99.90
35523;DHT22;61478;50.820;4.330;2023-03-20T08:45:18;8.00;99.90
35523;DHT22;61478;50.820;4.330;2023-03-20T08:47:46;8.10;99.90
35523;DHT22;61478;50.820;4.330;2023-03-20T08:50:14;8.20;99.90
35523;DHT22;61478;50.820;4.330;2023-03-20T08:52:40;8.20;99.90
35523;DHT22;61478;50.820;4.330;2023-03-20T08:55:12;8.10;99.90
35523;DHT22;61478;50.820;4.330;2023-03-20T08:57:39;8.10;99.90
35523;DHT22;61478;50.820;4.330;2023-03-20T09:00:11;8.10;99.90
35523;DHT22;61478;50.820;4.330;2023-03-20T09:02:38;8.10;99.90
35523;DHT22;61478;50.820;4.330;2023-03-20T09:05:04;8.20;99.90
35523;DHT22;61478;50.820;4.330;2023-03-20T09:07:30;8.20;99.90
35523;DHT22;61478;50.820;4.330;2023-03-20T09:09:56;8.20;99.90
35523;DHT22;61478;50.820;4.330;2023-03-20T09:12:22;8.30;99.90
35523;DHT22;61478;50.820;4.330;2023-03-20T09:14:48;8.30;99.90
35523;DHT22;61478;50.820;4.330;2023-03-20T09:17:14;8.30;99.90
35523;DHT22;61478;50.820;4.330;2023-03-20T09:19:41;8.30;99.90
35523;DHT22;61478;50.820;4.330;2023-03-20T09:22:12;8.40;99.90
35523;DHT22;61478;50.820;4.330;2023-03-20T09:24:38;8.30;99.90
35523;DHT22;61478;50.820;4.330;2023-03-20T09:27:04;8.40;99.90
35523;DHT22;61478;50.820;4.330;2023-03-20T09:29:30;8.40;99.90
35523;DHT22;61478;50.820;4.330;2023-03-20T09:31:56;8.50;99.90
35523;DHT22;61478;50.820;4.330;2023-03-20T09:34:21;8.60;99.90
35523;DHT22;61478;50.820;4.330;2023-03-20T09:36:49;8.60;99.90
35523;DHT22;61478;50.820;4.330;2023-03-20T09:39:15;8.80;99.90
35523;DHT22;61478;50.820;4.330;2023-03-20T09:41:45;8.80;99.90
35523;DHT22;61478;50.820;4.330;2023-03-20T09:47:04;8.90;99.90
35523;DHT22;61478;50.820;4.330;2023-03-20T09:52:39;9.00;99.90
35523;DHT22;61478;50.820;4.330;2023-03-20T09:55:19;9.10;99.90
35523;DHT22;61478;50.820;4.330;2023-03-20T09:57:52;9.30;99.90
35523;DHT22;61478;50.820;4.330;2023-03-20T10:00:22;9.40;99.90
35523;DHT22;61478;50.820;4.330;2023-03-20T10:02:52;9.40;99.90
35523;DHT22;61478;50.820;4.330;2023-03-20T10:05:28;9.40;99.90
35523;DHT22;61478;50.820;4.330;2023-03-20T10:07:57;9.40;99.90
35523;DHT22;61478;50.820;4.330;2023-03-20T10:10:48;9.50;99.90
35523;DHT22;61478;50.820;4.330;2023-03-20T10:19:21;9.50;99.90
35523;DHT22;61478;50.820;4.330;2023-03-20T10:22:24;9.70;99.90
35523;DHT22;61478;50.820;4.330;2023-03-20T10:27:50;9.80;99.90
35523;DHT22;61478;50.820;4.330;2023-03-20T10:33:21;10.00;99.90
35523;DHT22;61478;50.820;4.330;2023-03-20T10:38:51;10.30;99.90
35523;DHT22;61478;50.820;4.330;2023-03-20T10:41:28;10.40;99.90
35523;DHT22;61478;50.820;4.330;2023-03-20T10:43:58;10.40;99.90
35523;DHT22;61478;50.820;4.330;2023-03-20T10:46:29;10.50;99.90
35523;DHT22;61478;50.820;4.330;2023-03-20T10:49:03;10.60;99.90
35523;DHT22;61478;50.820;4.330;2023-03-20T10:56:48;11.00;99.90
35523;DHT22;61478;50.820;4.330;2023-03-20T10:59:22;10.90;99.90
35523;DHT22;61478;50.820;4.330;2023-03-20T11:01:48;11.00;99.90
35523;DHT22;61478;50.820;4.330;2023-03-20T11:04:14;11.00;99.90
35523;DHT22;61478;50.820;4.330;2023-03-20T11:09:24;10.90;99.90
35523;DHT22;61478;50.820;4.330;2023-03-20T11:12:00;10.90;99.90
35523;DHT22;61478;50.820;4.330;2023-03-20T11:14:36;10.90;99.90
35523;DHT22;61478;50.820;4.330;2023-03-20T11:17:04;10.80;99.90
35523;DHT22;61478;50.820;4.330;2023-03-20T11:19:39;10.90;99.90
35523;DHT22;61478;50.820;4.330;2023-03-20T11:24:50;10.90;99.90
35523;DHT22;61478;50.820;4.330;2023-03-20T11:27:32;10.90;99.90
35523;DHT22;61478;50.820;4.330;2023-03-20T11:30:04;11.00;99.90
35523;DHT22;61478;50.820;4.330;2023-03-20T11:32:39;11.30;99.90
35523;DHT22;61478;50.820;4.330;2023-03-20T11:35:20;11.40;99.90
35523;DHT22;61478;50.820;4.330;2023-03-20T11:37:51;11.40;99.90
35523;DHT22;61478;50.820;4.330;2023-03-20T11:40:31;11.40;99.90
35523;DHT22;61478;50.820;4.330;2023-03-20T11:45:34;11.50;99.90
35523;DHT22;61478;50.820;4.330;2023-03-20T11:48:01;11.60;99.90
35523;DHT22;61478;50.820;4.330;2023-03-20T11:50:40;11.60;99.90
35523;DHT22;61478;50.820;4.330;2023-03-20T11:58:27;11.80;99.90
35523;DHT22;61478;50.820;4.330;2023-03-20T12:00:54;11.90;99.90
35523;DHT22;61478;50.820;4.330;2023-03-20T12:06:16;11.80;99.90
35523;DHT22;61478;50.820;4.330;2023-03-20T12:08:54;11.70;99.90
35523;DHT22;61478;50.820;4.330;2023-03-20T12:13:55;12.00;99.90
35523;DHT22;61478;50.820;4.330;2023-03-20T12:16:25;12.10;99.90
35523;DHT22;61478;50.820;4.330;2023-03-20T12:18:54;12.40;99.90
35523;DHT22;61478;50.820;4.330;2023-03-20T12:21:44;12.40;99.90
35523;DHT22;61478;50.820;4.330;2023-03-20T12:24:24;12.40;99.90
35523;DHT22;61478;50.820;4.330;2023-03-20T12:27:16;12.50;99.90
35523;DHT22;61478;50.820;4.330;2023-03-20T12:30:04;12.50;99.90
35523;DHT22;61478;50.820;4.330;2023-03-20T12:33:02;12.80;99.90
35523;DHT22;61478;50.820;4.330;2023-03-20T12:35:28;12.90;99.90
35523;DHT22;61478;50.820;4.330;2023-03-20T12:37:55;12.80;99.90
35523;DHT22;61478;50.820;4.330;2023-03-20T12:40:32;12.70;99.90
35523;DHT22;61478;50.820;4.330;2023-03-20T12:43:29;12.60;99.90
35523;DHT22;61478;50.820;4.330;2023-03-20T12:48:38;12.50;99.90
35523;DHT22;61478;50.820;4.330;2023-03-20T12:51:19;12.60;99.90
35523;DHT22;61478;50.820;4.330;2023-03-20T12:59:20;12.80;99.90
35523;DHT22;61478;50.820;4.330;2023-03-20T13:02:26;12.80;99.90
35523;DHT22;61478;50.820;4.330;2023-03-20T13:05:22;12.60;99.90
35523;DHT22;61478;50.820;4.330;2023-03-20T13:08:12;12.40;99.90
35523;DHT22;61478;50.820;4.330;2023-03-20T13:13:49;12.20;99.90
35523;DHT22;61478;50.820;4.330;2023-03-20T13:19:24;12.00;99.90
35523;DHT22;61478;50.820;4.330;2023-03-20T13:22:00;11.90;99.90
35523;DHT22;61478;50.820;4.330;2023-03-20T13:29:46;12.00;99.90
35523;DHT22;61478;50.820;4.330;2023-03-20T13:34:58;12.00;99.90
35523;DHT22;61478;50.820;4.330;2023-03-20T13:37:34;12.00;99.90
35523;DHT22;61478;50.820;4.330;2023-03-20T13:40:13;12.00;99.90
35523;DHT22;61478;50.820;4.330;2023-03-20T13:45:37;12.10;99.90
35523;DHT22;61478;50.820;4.330;2023-03-20T13:48:26;12.00;99.90
35523;DHT22;61478;50.820;4.330;2023-03-20T13:51:19;12.00;99.90
35523;DHT22;61478;50.820;4.330;2023-03-20T13:56:30;11.90;99.90
35523;DHT22;61478;50.820;4.330;2023-03-20T14:01:56;11.90;99.90
35523;DHT22;61478;50.820;4.330;2023-03-20T14:04:26;11.90;99.90
35523;DHT22;61478;50.820;4.330;2023-03-20T14:06:55;11.90;99.90
35523;DHT22;61478;50.820;4.330;2023-03-20T14:12:07;11.80;99.90
35523;DHT22;61478;50.820;4.330;2023-03-20T14:14:57;11.80;99.90
35523;DHT22;61478;50.820;4.330;2023-03-20T14:17:26;11.70;99.90
35523;DHT22;61478;50.820;4.330;2023-03-20T14:19:54;11.80;99.90
35523;DHT22;61478;50.820;4.330;2023-03-20T14:22:29;11.90;99.90
35523;DHT22;61478;50.820;4.330;2023-03-20T14:25:04;12.00;99.90
35523;DHT22;61478;50.820;4.330;2023-03-20T14:27:35;12.00;99.90
35523;DHT22;61478;50.820;4.330;2023-03-20T14:33:00;11.90;99.90
35523;DHT22;61478;50.820;4.330;2023-03-20T14:35:29;11.80;99.90
35523;DHT22;61478;50.820;4.330;2023-03-20T14:38:10;11.90;99.90
35523;DHT22;61478;50.820;4.330;2023-03-20T14:40:46;12.00;99.90
35523;DHT22;61478;50.820;4.330;2023-03-20T14:43:40;12.10;99.90
35523;DHT22;61478;50.820;4.330;2023-03-20T14:51:49;12.30;99.90
35523;DHT22;61478;50.820;4.330;2023-03-20T14:54:29;12.20;99.90
35523;DHT22;61478;50.820;4.330;2023-03-20T14:57:08;12.20;99.90
35523;DHT22;61478;50.820;4.330;2023-03-20T14:59:34;12.10;99.90
35523;DHT22;61478;50.820;4.330;2023-03-20T15:02:02;12.10;99.90
35523;DHT22;61478;50.820;4.330;2023-03-20T15:07:12;12.10;99.90
35523;DHT22;61478;50.820;4.330;2023-03-20T15:09:41;12.10;99.90
35523;DHT22;61478;50.820;4.330;2023-03-20T15:12:11;12.20;99.90
35523;DHT22;61478;50.820;4.330;2023-03-20T15:14:57;12.20;99.90
35523;DHT22;61478;50.820;4.330;2023-03-20T15:17:24;12.20;99.90
35523;DHT22;61478;50.820;4.330;2023-03-20T15:20:05;12.30;99.90
35523;DHT22;61478;50.820;4.330;2023-03-20T15:22:32;12.20;99.90
35523;DHT22;61478;50.820;4.330;2023-03-20T15:24:58;12.20;99.90
35523;DHT22;61478;50.820;4.330;2023-03-20T15:27:25;12.20;99.90
35523;DHT22;61478;50.820;4.330;2023-03-20T15:29:55;12.30;99.90
35523;DHT22;61478;50.820;4.330;2023-03-20T15:32:22;12.30;99.90
35523;DHT22;61478;50.820;4.330;2023-03-20T15:34:49;12.10;99.90
35523;DHT22;61478;50.820;4.330;2023-03-20T15:37:19;12.00;99.90
35523;DHT22;61478;50.820;4.330;2023-03-20T15:39:48;12.00;99.90
35523;DHT22;61478;50.820;4.330;2023-03-20T15:42:18;12.00;99.90
35523;DHT22;61478;50.820;4.330;2023-03-20T15:44:46;12.00;99.90
35523;DHT22;61478;50.820;4.330;2023-03-20T15:47:18;12.00;99.90
35523;DHT22;61478;50.820;4.330;2023-03-20T15:49:54;12.00;99.90
35523;DHT22;61478;50.820;4.330;2023-03-20T15:52:45;12.00;99.90
35523;DHT22;61478;50.820;4.330;2023-03-20T15:55:20;12.00;99.90
35523;DHT22;61478;50.820;4.330;2023-03-20T15:57:47;12.00;99.90
35523;DHT22;61478;50.820;4.330;2023-03-20T16:00:28;12.00;99.90
35523;DHT22;61478;50.820;4.330;2023-03-20T16:02:55;12.00;99.90
35523;DHT22;61478;50.820;4.330;2023-03-20T16:05:25;12.20;99.90
35523;DHT22;61478;50.820;4.330;2023-03-20T16:07:51;12.20;99.90
35523;DHT22;61478;50.820;4.330;2023-03-20T16:10:32;12.20;99.90
35523;DHT22;61478;50.820;4.330;2023-03-20T16:13:01;12.10;99.90
35523;DHT22;61478;50.820;4.330;2023-03-20T16:15:29;12.20;99.90
35523;DHT22;61478;50.820;4.330;2023-03-20T16:18:03;12.20;99.90
35523;DHT22;61478;50.820;4.330;2023-03-20T16:20:41;12.20;99.90
35523;DHT22;61478;50.820;4.330;2023-03-20T16:23:13;12.20;99.90
35523;DHT22;61478;50.820;4.330;2023-03-20T16:25:41;12.20;99.90
35523;DHT22;61478;50.820;4.330;2023-03-20T16:28:07;12.20;99.90
35523;DHT22;61478;50.820;4.330;2023-03-20T16:30:33;12.10;99.90
35523;DHT22;61478;50.820;4.330;2023-03-20T16:33:13;12.00;99.90
35523;DHT22;61478;50.820;4.330;2023-03-20T16:35:46;11.90;99.90
35523;DHT22;61478;50.820;4.330;2023-03-20T16:38:26;11.90;99.90
35523;DHT22;61478;50.820;4.330;2023-03-20T16:40:56;11.90;99.90
35523;DHT22;61478;50.820;4.330;2023-03-20T16:43:38;11.90;99.90
35523;DHT22;61478;50.820;4.330;2023-03-20T16:46:05;12.00;99.90
35523;DHT22;61478;50.820;4.330;2023-03-20T16:48:35;11.90;99.90
35523;DHT22;61478;50.820;4.330;2023-03-20T16:51:08;12.00;99.90
35523;DHT22;61478;50.820;4.330;2023-03-20T16:53:40;11.90;99.90
35523;DHT22;61478;50.820;4.330;2023-03-20T16:56:12;12.00;99.90
35523;DHT22;61478;50.820;4.330;2023-03-20T16:58:42;12.00;99.90
35523;DHT22;61478;50.820;4.330;2023-03-20T17:01:18;11.90;99.90
35523;DHT22;61478;50.820;4.330;2023-03-20T17:03:56;11.90;99.90
35523;DHT22;61478;50.820;4.330;2023-03-20T17:08:53;11.90;99.90
35523;DHT22;61478;50.820;4.330;2023-03-20T17:11:31;11.90;99.90
35523;DHT22;61478;50.820;4.330;2023-03-20T17:13:58;11.90;99.90
35523;DHT22;61478;50.820;4.330;2023-03-20T17:16:24;11.90;99.90
35523;DHT22;61478;50.820;4.330;2023-03-20T17:19:02;11.90;99.90
35523;DHT22;61478;50.820;4.330;2023-03-20T17:21:29;11.90;99.90
35523;DHT22;61478;50.820;4.330;2023-03-20T17:23:56;11.90;99.90
35523;DHT22;61478;50.820;4.330;2023-03-20T17:26:23;11.90;99.90
35523;DHT22;61478;50.820;4.330;2023-03-20T17:28:49;11.80;99.90
35523;DHT22;61478;50.820;4.330;2023-03-20T17:31:16;11.80;99.90
35523;DHT22;61478;50.820;4.330;2023-03-20T17:33:44;11.70;99.90
35523;DHT22;61478;50.820;4.330;2023-03-20T17:36:22;11.80;99.90
35523;DHT22;61478;50.820;4.330;2023-03-20T17:38:48;11.70;99.90
35523;DHT22;61478;50.820;4.330;2023-03-20T17:41:16;11.70;99.90
35523;DHT22;61478;50.820;4.330;2023-03-20T17:43:44;11.70;99.90
35523;DHT22;61478;50.820;4.330;2023-03-20T17:46:19;11.80;99.90
35523;DHT22;61478;50.820;4.330;2023-03-20T17:48:46;11.70;99.90
35523;DHT22;61478;50.820;4.330;2023-03-20T17:51:13;11.80;99.90
35523;DHT22;61478;50.820;4.330;2023-03-20T17:53:39;11.80;99.90
35523;DHT22;61478;50.820;4.330;2023-03-20T17:56:15;11.80;99.90
35523;DHT22;61478;50.820;4.330;2023-03-20T17:58:41;11.70;99.90
35523;DHT22;61478;50.820;4.330;2023-03-20T18:01:10;11.70;99.90
35523;DHT22;61478;50.820;4.330;2023-03-20T18:03:36;11.70;99.90
35523;DHT22;61478;50.820;4.330;2023-03-20T18:06:03;11.60;99.90
35523;DHT22;61478;50.820;4.330;2023-03-20T18:08:29;11.60;99.90
35523;DHT22;61478;50.820;4.330;2023-03-20T18:10:55;11.60;99.90
35523;DHT22;61478;50.820;4.330;2023-03-20T18:13:23;11.60;99.90
35523;DHT22;61478;50.820;4.330;2023-03-20T18:15:51;11.60;99.90
35523;DHT22;61478;50.820;4.330;2023-03-20T18:18:18;11.60;99.90
35523;DHT22;61478;50.820;4.330;2023-03-20T18:20:45;11.60;99.90
35523;DHT22;61478;50.820;4.330;2023-03-20T18:23:12;11.70;99.90
35523;DHT22;61478;50.820;4.330;2023-03-20T18:25:38;11.70;99.90
35523;DHT22;61478;50.820;4.330;2023-03-20T18:28:07;11.70;99.90
35523;DHT22;61478;50.820;4.330;2023-03-20T18:30:38;11.60;99.90
35523;DHT22;61478;50.820;4.330;2023-03-20T18:33:05;11.60;99.90
35523;DHT22;61478;50.820;4.330;2023-03-20T18:35:32;11.50;99.90
35523;DHT22;61478;50.820;4.330;2023-03-20T18:37:58;11.50;99.90
35523;DHT22;61478;50.820;4.330;2023-03-20T18:40:27;11.40;99.90
35523;DHT22;61478;50.820;4.330;2023-03-20T18:42:54;11.40;99.90